createdAt,value
2023-02-13T00:02:44.429Z,71.71
2023-02-13T00:07:48.433Z,72.23
2023-02-13T00:12:52.591Z,71.52
2023-02-13T00:18:00.578Z,72.36
2023-02-13T00:23:04.814Z,72.81
2023-02-13T00:28:09.413Z,73.77
2023-02-13T00:33:14.928Z,72.37
2023-02-13T00:38:18.971Z,73.63
2023-02-13T00:43:23.714Z,74.55
2023-02-13T00:48:31.200Z,73.91
2023-02-13T00:53:36.776Z,74.08
2023-02-13T00:58:41.004Z,74.05
2023-02-13T01:03:46.498Z,74.70
2023-02-13T01:08:50.711Z,74.71
2023-02-13T01:13:54.591Z,74.71
2023-02-13T01:18:59.945Z,74.33
2023-02-13T01:24:06.013Z,74.26
2023-02-13T01:29:13.210Z,75.14
2023-02-13T01:34:19.891Z,75.29
2023-02-13T01:39:23.864Z,75.69
2023-02-13T01:44:53.918Z,75.89
2023-02-13T01:50:09.481Z,75.43
2023-02-13T01:55:14.810Z,75.29
2023-02-13T02:00:20.898Z,75.86
2023-02-13T02:05:29.941Z,76.00
2023-02-13T02:10:34.985Z,76.40
2023-02-13T02:15:43.175Z,75.70
2023-02-13T02:21:20.238Z,73.76
2023-02-13T02:26:59.522Z,74.14
2023-02-13T02:32:28.087Z,75.29
2023-02-13T02:37:51.159Z,75.44
2023-02-13T02:43:08.926Z,74.80
2023-02-13T02:48:41.077Z,75.14
2023-02-13T02:53:54.578Z,74.38
2023-02-13T02:59:22.871Z,73.30
2023-02-13T03:04:52.185Z,71.98
2023-02-13T03:10:16.708Z,72.54
2023-02-13T03:15:21.022Z,73.58
2023-02-13T03:20:51.822Z,74.48
2023-02-13T03:26:21.916Z,74.65
2023-02-13T03:31:35.929Z,75.38
2023-02-13T03:37:07.066Z,75.58
2023-02-13T03:42:15.561Z,75.29
2023-02-13T03:47:19.608Z,73.77
2023-02-13T03:52:30.561Z,73.75
2023-02-13T03:57:55.702Z,75.77
2023-02-13T04:03:08.364Z,74.92
2023-02-13T04:08:13.749Z,75.54
2023-02-13T04:13:22.227Z,75.61
2023-02-13T04:18:30.163Z,76.24
2023-02-13T04:23:37.181Z,76.20
2023-02-13T04:28:41.294Z,75.92
2023-02-13T04:33:45.588Z,75.71
2023-02-13T04:38:51.840Z,75.82
2023-02-13T04:43:55.771Z,76.78
2023-02-13T04:48:59.723Z,77.04
2023-02-13T04:54:05.227Z,75.84
2023-02-13T04:59:09.253Z,75.71
2023-02-13T05:04:16.495Z,75.40
2023-02-13T05:09:22.197Z,74.10
2023-02-13T05:14:26.430Z,73.50
2023-02-13T05:19:30.438Z,73.92
2023-02-13T05:24:36.280Z,73.90
2023-02-13T05:29:40.200Z,74.92
2023-02-13T05:34:44.768Z,75.62
2023-02-13T05:39:50.259Z,74.49
2023-02-13T05:44:54.405Z,74.41
2023-02-13T05:49:58.355Z,73.84
2023-02-13T05:55:03.720Z,74.16
2023-02-13T06:00:09.098Z,74.33
2023-02-13T06:05:13.001Z,72.22
2023-02-13T06:10:18.620Z,72.02
2023-02-13T06:15:22.708Z,71.54
2023-02-13T06:20:26.649Z,70.66
2023-02-13T06:25:32.023Z,72.20
2023-02-13T06:30:36.050Z,71.47
2023-02-13T06:35:40.010Z,70.63
2023-02-13T06:40:45.754Z,70.27
2023-02-13T06:45:51.901Z,69.71
2023-02-13T06:50:56.132Z,70.20
2023-02-13T06:56:07.052Z,70.26
2023-02-13T07:01:11.306Z,69.54
2023-02-13T07:06:19.124Z,69.46
2023-02-13T07:11:29.240Z,69.58
2023-02-13T07:16:33.922Z,69.27
2023-02-13T07:21:38.234Z,69.99
2023-02-13T07:26:46.006Z,71.93
2023-02-13T07:31:51.746Z,72.10
2023-02-13T07:36:56.166Z,72.90
2023-02-13T07:42:01.788Z,72.73
2023-02-13T07:47:05.959Z,72.50
2023-02-13T07:52:10.242Z,72.89
2023-02-13T07:57:16.207Z,72.01
2023-02-13T08:02:20.886Z,71.66
2023-02-13T08:07:24.859Z,70.58
2023-02-13T08:12:31.114Z,71.41
2023-02-13T08:17:35.326Z,70.34
2023-02-13T08:22:40.236Z,68.95
2023-02-13T08:27:45.940Z,67.11
2023-02-13T08:32:54.351Z,64.05
2023-02-13T08:38:02.833Z,59.46
2023-02-13T08:43:09.184Z,56.45
2023-02-13T08:48:13.294Z,54.71
2023-02-13T08:53:17.366Z,52.36
2023-02-13T08:58:23.174Z,50.09
2023-02-13T09:03:27.332Z,50.04
2023-02-13T09:08:31.341Z,47.77
2023-02-13T09:13:38.352Z,49.80
2023-02-13T09:18:42.614Z,49.46
2023-02-13T09:23:46.618Z,47.43
2023-02-13T09:28:52.227Z,45.67
2023-02-13T09:33:58.538Z,44.59
2023-02-13T09:39:04.125Z,46.25
2023-02-13T09:44:34.367Z,45.75
2023-02-13T09:49:41.327Z,47.62
2023-02-13T09:54:47.566Z,47.00
2023-02-13T10:00:12.138Z,44.88
2023-02-13T10:05:33.439Z,43.48
2023-02-13T10:10:51.916Z,40.41
2023-02-13T10:16:10.994Z,40.70
2023-02-13T10:21:17.669Z,39.89
2023-02-13T10:26:42.945Z,40.70
2023-02-13T10:31:52.793Z,41.54
2023-02-13T10:36:57.030Z,40.15
2023-02-13T10:42:12.880Z,41.62
2023-02-13T10:47:35.400Z,40.61
2023-02-13T10:52:49.769Z,42.13
2023-02-13T10:58:10.788Z,41.54
2023-02-13T11:03:22.032Z,39.64
2023-02-13T11:08:27.743Z,39.26
2023-02-13T11:13:32.134Z,41.46
2023-02-13T11:18:41.152Z,41.03
2023-02-13T11:23:47.704Z,38.99
2023-02-13T11:28:55.907Z,39.32
2023-02-13T11:34:19.850Z,38.65
2023-02-13T11:39:28.073Z,38.83
2023-02-13T11:44:34.689Z,38.84
2023-02-13T11:49:45.638Z,36.96
2023-02-13T11:54:58.143Z,38.23
2023-02-13T12:00:26.613Z,40.36
2023-02-13T12:05:33.893Z,38.27
2023-02-13T12:10:40.029Z,38.10
2023-02-13T12:15:47.341Z,37.48
2023-02-13T12:21:12.480Z,38.38
2023-02-13T12:26:29.637Z,37.41
2023-02-13T12:31:56.424Z,37.57
2023-02-13T12:37:16.325Z,38.44
2023-02-13T12:42:34.251Z,37.26
2023-02-13T12:47:47.571Z,38.10
2023-02-13T12:53:05.870Z,37.44
2023-02-13T12:58:32.636Z,37.84
2023-02-13T13:03:53.369Z,37.00
2023-02-13T13:09:18.060Z,37.59
2023-02-13T13:14:29.135Z,39.27
2023-02-13T13:19:42.537Z,39.09
2023-02-13T13:25:01.508Z,38.89
2023-02-13T13:30:18.264Z,39.28
2023-02-13T13:35:23.773Z,38.83
2023-02-13T13:40:52.532Z,38.67
2023-02-13T13:46:10.354Z,39.24
2023-02-13T13:51:20.264Z,40.21
2023-02-13T13:56:26.838Z,40.45
2023-02-13T14:01:34.619Z,38.82
2023-02-13T14:07:17.869Z,38.53
2023-02-13T14:12:48.065Z,39.36
2023-02-13T14:17:56.241Z,39.90
2023-02-13T14:23:23.149Z,39.96
2023-02-13T14:28:29.012Z,40.03
2023-02-13T14:33:34.301Z,41.17
2023-02-13T14:38:42.438Z,41.85
2023-02-13T14:43:54.493Z,41.50
2023-02-13T14:49:05.911Z,43.25
2023-02-13T14:54:21.360Z,43.25
2023-02-13T14:59:36.132Z,43.21
2023-02-13T15:04:50.826Z,42.82
2023-02-13T15:10:00.742Z,42.53
2023-02-13T15:15:31.099Z,42.95
2023-02-13T15:20:46.315Z,44.26
2023-02-13T15:26:03.595Z,46.16
2023-02-13T15:31:27.100Z,47.11
2023-02-13T15:36:38.308Z,48.36
2023-02-13T15:41:46.115Z,49.61
2023-02-13T15:46:53.608Z,51.17
2023-02-13T15:52:16.592Z,53.45
2023-02-13T15:57:24.011Z,55.65
2023-02-13T16:02:35.041Z,57.47
2023-02-13T16:07:49.714Z,58.28
2023-02-13T16:12:54.986Z,59.91
2023-02-13T16:18:06.454Z,61.74
2023-02-13T16:23:23.428Z,62.04
2023-02-13T16:28:35.196Z,62.92
2023-02-13T16:33:44.579Z,64.18
2023-02-13T16:39:00.282Z,65.78
2023-02-13T16:44:06.576Z,66.34
2023-02-13T16:49:41.775Z,66.59
2023-02-13T16:55:08.951Z,65.25
2023-02-13T17:00:25.667Z,65.83
2023-02-13T17:05:32.923Z,65.96
2023-02-13T17:10:46.073Z,66.63
2023-02-13T17:15:57.457Z,67.46
2023-02-13T17:21:06.768Z,68.51
2023-02-13T17:26:12.920Z,69.22
2023-02-13T17:31:18.773Z,69.51
2023-02-13T17:36:35.218Z,69.59
2023-02-13T17:41:44.060Z,70.13
2023-02-13T17:46:53.310Z,71.14
2023-02-13T17:52:00.869Z,72.15
2023-02-13T17:57:06.553Z,72.17
2023-02-13T18:02:19.154Z,72.62
2023-02-13T18:07:30.877Z,72.08
2023-02-13T18:12:40.275Z,72.81
2023-02-13T18:17:50.555Z,73.41
2023-02-13T18:22:58.720Z,74.17
2023-02-13T18:28:30.355Z,73.59
2023-02-13T18:33:34.525Z,74.09
2023-02-13T18:38:42.815Z,74.08
2023-02-13T18:43:48.391Z,74.47
2023-02-13T18:48:52.595Z,73.69
2023-02-13T18:53:59.914Z,73.47
2023-02-13T18:59:06.743Z,73.35
2023-02-13T19:04:12.395Z,73.30
2023-02-13T19:09:19.618Z,73.99
2023-02-13T19:14:25.764Z,74.54
2023-02-13T19:19:30.316Z,74.28
2023-02-13T19:24:36.112Z,73.68
2023-02-13T19:29:40.712Z,74.38
2023-02-13T19:34:45.326Z,73.43
2023-02-13T19:39:50.952Z,74.43
2023-02-13T19:44:54.899Z,74.11
2023-02-13T19:49:58.922Z,73.81
2023-02-13T19:55:04.517Z,74.81
2023-02-13T20:00:09.949Z,75.04
2023-02-13T20:05:17.347Z,75.74
2023-02-13T20:10:24.160Z,75.70
2023-02-13T20:15:28.110Z,76.18
2023-02-13T20:20:33.013Z,76.02
2023-02-13T20:25:39.082Z,76.67
2023-02-13T20:30:44.113Z,76.86
2023-02-13T20:35:50.227Z,76.49
2023-02-13T20:41:01.683Z,77.03
2023-02-13T20:46:07.132Z,78.04
2023-02-13T20:51:14.939Z,77.60
2023-02-13T20:56:22.823Z,77.54
2023-02-13T21:01:30.678Z,76.16
2023-02-13T21:06:37.711Z,76.91
2023-02-13T21:11:45.196Z,76.80
2023-02-13T21:16:50.054Z,76.93
2023-02-13T21:21:54.299Z,76.60
2023-02-13T21:26:59.999Z,77.33
2023-02-13T21:32:04.750Z,77.32
2023-02-13T21:37:09.132Z,78.36
2023-02-13T21:42:16.483Z,77.35
2023-02-13T21:47:21.008Z,77.32
2023-02-13T21:52:25.287Z,77.96
2023-02-13T21:57:30.913Z,77.11
2023-02-13T22:02:35.433Z,77.34
2023-02-13T22:07:53.426Z,76.86
2023-02-13T22:12:59.065Z,77.00
2023-02-13T22:18:03.610Z,77.60
2023-02-13T22:23:07.850Z,77.54
2023-02-13T22:28:13.678Z,76.60
2023-02-13T22:33:18.067Z,76.46
2023-02-13T22:38:22.419Z,76.60
2023-02-13T22:43:28.191Z,77.49
2023-02-13T22:48:32.499Z,76.61
2023-02-13T22:53:37.626Z,77.28
2023-02-13T22:58:43.267Z,77.59
2023-02-13T23:03:47.782Z,76.63
2023-02-13T23:08:53.901Z,77.10
2023-02-13T23:13:59.653Z,78.19
2023-02-13T23:19:04.144Z,77.84
2023-02-13T23:24:08.953Z,76.77
2023-02-13T23:29:14.501Z,76.79
2023-02-13T23:34:18.772Z,76.34
2023-02-13T23:39:24.337Z,77.05
2023-02-13T23:44:29.945Z,76.49
2023-02-13T23:49:34.058Z,76.65
2023-02-13T23:54:38.243Z,77.37
2023-02-13T23:59:43.623Z,77.34
